Walters, Mississippi
Current Conditions -  °F | °C
As of 11:55 AM on Friday 28 Nov 2014 (Local Time) from KPIB Reporting Station
Clear Clear  
Wind Chill: 52°   Ceiling: Unl
Heat Index: 52°   Visibility: 10mi
Dew Point: 27°   Wind: 3mph
Humidity: 38%   Direction: 80°E
Pressure: 30.4"   Gusts: NA
Location:  31.5533°N, 89.2322°W
Report Text: KPIB 281755Z AUTO 08003KT 10SM CLR 11/M03 A3040 RMK AO1 10110 21020 57020
Loading
Personal Weather Stations






























Interactive Weather Map New forecast layout! Learn more

10-Day Weather Forecast

Advertisements
Track Severe Weather on mobile